createdAt,value
2023-03-26T00:01:38.764Z,100.00
2023-03-26T00:04:07.998Z,100.00
2023-03-26T00:06:39.230Z,100.00
2023-03-26T00:09:10.569Z,100.00
2023-03-26T00:11:37.557Z,100.00
2023-03-26T00:14:05.645Z,100.00
2023-03-26T00:16:37.722Z,100.00
2023-03-26T00:19:06.822Z,100.00
2023-03-26T00:21:33.855Z,100.00
2023-03-26T00:24:07.069Z,100.00
2023-03-26T00:26:38.483Z,100.00
2023-03-26T00:29:06.809Z,100.00
2023-03-26T00:31:33.713Z,100.00
2023-03-26T00:34:03.492Z,100.00
2023-03-26T00:36:35.947Z,100.00
2023-03-26T00:39:10.068Z,100.00
2023-03-26T00:41:43.299Z,100.00
2023-03-26T00:44:10.571Z,100.00
2023-03-26T00:46:37.466Z,100.00
2023-03-26T00:49:10.913Z,100.00
2023-03-26T00:51:39.156Z,100.00
2023-03-26T00:54:07.738Z,100.00
2023-03-26T00:56:37.116Z,100.00
2023-03-26T00:59:06.229Z,100.00
2023-03-26T01:01:32.865Z,100.00
2023-03-26T01:04:24.161Z,100.00
2023-03-26T01:06:58.705Z,100.00
2023-03-26T01:09:35.857Z,100.00
2023-03-26T01:12:06.953Z,100.00
2023-03-26T01:14:38.289Z,100.00
2023-03-26T01:17:07.356Z,100.00
2023-03-26T01:19:57.103Z,100.00
2023-03-26T01:22:26.057Z,100.00
2023-03-26T01:24:54.236Z,100.00
2023-03-26T01:27:41.403Z,100.00
2023-03-26T01:30:38.552Z,100.00
2023-03-26T01:33:13.874Z,100.00
2023-03-26T01:35:42.658Z,100.00
2023-03-26T01:38:13.769Z,100.00
2023-03-26T01:40:57.932Z,100.00
2023-03-26T01:43:24.420Z,100.00
2023-03-26T01:45:54.669Z,100.00
2023-03-26T01:48:28.239Z,100.00
2023-03-26T01:50:58.886Z,100.00
2023-03-26T01:53:29.082Z,100.00
2023-03-26T01:56:14.613Z,100.00
2023-03-26T01:59:06.386Z,100.00
2023-03-26T02:01:46.093Z,100.00
2023-03-26T02:04:24.963Z,100.00
2023-03-26T02:07:02.013Z,100.00
2023-03-26T02:09:32.676Z,100.00
2023-03-26T02:12:03.650Z,100.00
2023-03-26T02:14:34.395Z,100.00
2023-03-26T02:17:03.933Z,100.00
2023-03-26T02:19:30.578Z,100.00
2023-03-26T02:22:00.029Z,100.00
2023-03-26T02:24:29.616Z,100.00
2023-03-26T02:26:58.129Z,100.00
2023-03-26T02:29:29.743Z,100.00
2023-03-26T02:31:58.534Z,100.00
2023-03-26T02:34:25.201Z,100.00
2023-03-26T02:36:57.227Z,100.00
2023-03-26T02:39:26.736Z,100.00
2023-03-26T02:41:55.732Z,100.00
2023-03-26T02:44:22.269Z,100.00
2023-03-26T02:46:48.837Z,100.00
2023-03-26T02:49:15.873Z,100.00
2023-03-26T02:51:42.597Z,100.00
2023-03-26T02:54:09.814Z,100.00
2023-03-26T02:56:41.168Z,100.00
2023-03-26T02:59:12.458Z,100.00
2023-03-26T03:01:43.001Z,100.00
2023-03-26T03:04:14.914Z,100.00
2023-03-26T03:06:44.672Z,100.00
2023-03-26T03:09:12.000Z,100.00
2023-03-26T03:11:41.115Z,100.00
2023-03-26T03:14:07.676Z,100.00
2023-03-26T03:16:34.323Z,100.00
2023-03-26T03:19:01.876Z,100.00
2023-03-26T03:21:33.744Z,100.00
2023-03-26T03:24:05.288Z,100.00
2023-03-26T03:26:31.934Z,100.00
2023-03-26T03:29:01.076Z,100.00
2023-03-26T03:31:30.058Z,100.00
2023-03-26T03:33:56.711Z,100.00
2023-03-26T03:36:28.006Z,100.00
2023-03-26T03:38:55.176Z,100.00
2023-03-26T03:41:21.869Z,100.00
2023-03-26T03:43:48.588Z,100.00
2023-03-26T03:46:17.538Z,100.00
2023-03-26T03:48:48.312Z,100.00
2023-03-26T03:51:14.931Z,100.00
2023-03-26T03:53:46.027Z,100.00
2023-03-26T03:56:14.641Z,100.00
2023-03-26T03:58:45.600Z,100.00
2023-03-26T04:01:16.817Z,100.00
2023-03-26T04:03:46.825Z,100.00
2023-03-26T04:06:13.688Z,100.00
2023-03-26T04:08:40.465Z,100.00
2023-03-26T04:11:09.373Z,100.00
2023-03-26T04:13:36.383Z,100.00
2023-03-26T04:16:07.664Z,100.00
2023-03-26T04:18:34.418Z,100.00
2023-03-26T04:21:05.251Z,100.00
2023-03-26T04:23:38.589Z,100.00
2023-03-26T04:26:07.042Z,100.00
2023-03-26T04:28:46.890Z,100.00
2023-03-26T04:31:17.125Z,100.00
2023-03-26T04:33:47.556Z,100.00
2023-03-26T04:36:19.727Z,100.00
2023-03-26T04:38:52.070Z,100.00
2023-03-26T04:41:18.752Z,100.00
2023-03-26T04:43:50.815Z,100.00
2023-03-26T04:46:26.758Z,100.00
2023-03-26T04:48:54.453Z,100.00
2023-03-26T04:51:29.094Z,100.00
2023-03-26T04:54:02.643Z,100.00
2023-03-26T04:56:48.169Z,100.00
2023-03-26T04:59:20.255Z,100.00
2023-03-26T05:01:49.001Z,100.00
2023-03-26T05:04:15.865Z,100.00
2023-03-26T05:06:45.222Z,100.00
2023-03-26T05:09:16.698Z,100.00
2023-03-26T05:11:45.499Z,100.00
2023-03-26T05:14:12.083Z,100.00
2023-03-26T05:16:44.868Z,100.00
2023-03-26T05:19:14.252Z,100.00
2023-03-26T05:21:43.271Z,100.00
2023-03-26T05:24:10.231Z,100.00
2023-03-26T05:26:37.594Z,100.00
2023-03-26T05:29:08.963Z,100.00
2023-03-26T05:31:35.588Z,100.00
2023-03-26T05:34:04.570Z,100.00
2023-03-26T05:36:31.124Z,100.00
2023-03-26T05:38:57.674Z,100.00
2023-03-26T05:41:26.791Z,100.00
2023-03-26T05:43:55.679Z,100.00
2023-03-26T05:46:27.459Z,100.00
2023-03-26T05:48:54.204Z,100.00
2023-03-26T05:51:23.488Z,100.00
2023-03-26T05:53:50.074Z,100.00
2023-03-26T05:56:16.641Z,100.00
2023-03-26T05:58:45.776Z,100.00
2023-03-26T06:01:20.794Z,100.00
2023-03-26T06:03:52.485Z,100.00
2023-03-26T06:06:20.593Z,100.00
2023-03-26T06:09:02.104Z,100.00
2023-03-26T06:11:32.807Z,100.00
2023-03-26T06:14:00.356Z,100.00
2023-03-26T06:16:28.051Z,100.00
2023-03-26T06:18:56.703Z,100.00
2023-03-26T06:21:25.225Z,100.00
2023-03-26T06:23:57.203Z,100.00
2023-03-26T06:26:26.121Z,100.00
2023-03-26T06:28:52.677Z,100.00
2023-03-26T06:31:21.754Z,100.00
2023-03-26T06:33:48.900Z,100.00
2023-03-26T06:36:15.591Z,100.00
2023-03-26T06:38:47.070Z,100.00
2023-03-26T06:41:13.711Z,100.00
2023-03-26T06:43:42.824Z,100.00
2023-03-26T06:46:12.284Z,100.00
2023-03-26T06:48:44.935Z,100.00
2023-03-26T06:51:13.742Z,100.00
2023-03-26T06:53:42.391Z,100.00
2023-03-26T06:56:11.668Z,100.00
2023-03-26T06:58:42.976Z,100.00
2023-03-26T07:01:09.596Z,100.00
2023-03-26T07:03:36.334Z,100.00
2023-03-26T07:06:05.155Z,100.00
2023-03-26T07:08:31.793Z,100.00
2023-03-26T07:11:00.554Z,100.00
2023-03-26T07:13:29.589Z,100.00
2023-03-26T07:16:00.802Z,100.00
2023-03-26T07:18:29.825Z,100.00
2023-03-26T07:21:01.727Z,100.00
2023-03-26T07:23:28.598Z,100.00
2023-03-26T07:25:57.568Z,100.00
2023-03-26T07:28:42.115Z,100.00
2023-03-26T07:31:22.773Z,100.00
2023-03-26T07:34:07.055Z,100.00
2023-03-26T07:36:46.804Z,100.00
2023-03-26T07:39:37.660Z,100.00
2023-03-26T07:42:22.484Z,100.00
2023-03-26T07:45:14.588Z,100.00
2023-03-26T07:47:47.068Z,100.00
2023-03-26T07:50:20.884Z,100.00
2023-03-26T07:52:47.691Z,100.00
2023-03-26T07:55:15.718Z,100.00
2023-03-26T07:58:09.752Z,100.00
2023-03-26T08:00:42.322Z,100.00
2023-03-26T08:03:41.418Z,100.00
2023-03-26T08:06:14.659Z,100.00
2023-03-26T08:08:49.608Z,100.00
2023-03-26T08:11:54.880Z,100.00
2023-03-26T08:14:24.663Z,100.00
2023-03-26T08:16:51.356Z,100.00
2023-03-26T08:20:07.239Z,100.00
2023-03-26T08:22:43.302Z,100.00
2023-03-26T08:25:38.083Z,100.00
2023-03-26T08:28:14.053Z,100.00
2023-03-26T08:30:40.858Z,100.00
2023-03-26T08:33:21.536Z,100.00
2023-03-26T08:35:50.949Z,100.00
2023-03-26T08:38:22.174Z,100.00
2023-03-26T08:41:10.482Z,100.00
2023-03-26T08:44:21.824Z,100.00
2023-03-26T08:47:09.590Z,100.00
2023-03-26T08:50:06.486Z,100.00
2023-03-26T08:52:54.347Z,100.00
2023-03-26T08:55:26.819Z,100.00
2023-03-26T08:58:21.534Z,100.00
2023-03-26T09:01:09.656Z,100.00
2023-03-26T09:03:51.178Z,100.00
2023-03-26T09:06:35.842Z,100.00
2023-03-26T09:09:19.250Z,100.00
2023-03-26T09:12:10.893Z,100.00
2023-03-26T09:14:55.785Z,100.00
2023-03-26T09:17:40.906Z,100.00
2023-03-26T09:20:35.238Z,100.00
2023-03-26T09:23:22.547Z,100.00
2023-03-26T09:26:22.627Z,100.00
2023-03-26T09:29:27.912Z,100.00
2023-03-26T09:32:06.632Z,100.00
2023-03-26T09:35:08.769Z,100.00
2023-03-26T09:37:59.438Z,100.00
2023-03-26T09:40:53.986Z,100.00
2023-03-26T09:43:36.819Z,100.00
2023-03-26T09:46:21.793Z,100.00
2023-03-26T09:49:06.463Z,100.00
2023-03-26T09:51:35.858Z,100.00
2023-03-26T09:54:14.618Z,100.00
2023-03-26T09:56:47.007Z,100.00
2023-03-26T09:59:51.728Z,100.00
2023-03-26T10:02:49.179Z,100.00
2023-03-26T10:05:18.611Z,100.00
2023-03-26T10:08:04.896Z,100.00
2023-03-26T10:10:33.970Z,100.00
2023-03-26T10:13:14.776Z,100.00
2023-03-26T10:15:57.282Z,100.00
2023-03-26T10:18:38.791Z,100.00
2023-03-26T10:21:34.736Z,100.00
2023-03-26T10:24:18.661Z,100.00
2023-03-26T10:27:13.230Z,100.00
2023-03-26T10:30:16.384Z,100.00
2023-03-26T10:33:08.707Z,100.00
2023-03-26T10:36:05.420Z,100.00
2023-03-26T10:39:35.957Z,100.00
2023-03-26T10:42:31.642Z,100.00
2023-03-26T10:45:45.974Z,100.00
2023-03-26T10:49:00.988Z,96.54
2023-03-26T10:51:49.438Z,97.19
2023-03-26T10:54:55.862Z,98.69
2023-03-26T10:57:51.688Z,96.15
2023-03-26T11:00:29.251Z,96.40
2023-03-26T11:03:14.726Z,95.28
2023-03-26T11:06:02.867Z,94.01
2023-03-26T11:08:41.069Z,93.67
2023-03-26T11:11:18.032Z,94.13
2023-03-26T11:13:53.779Z,92.16
2023-03-26T11:16:49.298Z,95.11
2023-03-26T11:19:21.710Z,91.22
2023-03-26T11:22:03.636Z,89.81
2023-03-26T11:24:46.953Z,85.58
2023-03-26T11:27:21.288Z,82.13
2023-03-26T11:30:14.566Z,80.64
2023-03-26T11:33:07.717Z,80.72
2023-03-26T11:35:41.081Z,79.41
2023-03-26T11:38:26.478Z,79.47
2023-03-26T11:40:58.401Z,80.55
2023-03-26T11:43:33.699Z,82.05
2023-03-26T11:46:04.447Z,80.11
2023-03-26T11:48:35.974Z,72.82
2023-03-26T11:51:14.753Z,71.65
2023-03-26T11:53:46.785Z,74.44
2023-03-26T11:57:04.733Z,72.79
2023-03-26T11:59:45.236Z,72.50
2023-03-26T12:02:46.688Z,72.62
2023-03-26T12:05:22.590Z,72.47
2023-03-26T12:07:57.378Z,73.54
2023-03-26T12:10:37.840Z,73.08
2023-03-26T12:13:38.156Z,70.83
2023-03-26T12:16:10.496Z,68.60
2023-03-26T12:18:41.203Z,73.26
2023-03-26T12:21:11.590Z,71.35
2023-03-26T12:23:58.091Z,77.49
2023-03-26T12:26:31.792Z,76.07
2023-03-26T12:29:11.290Z,77.90
2023-03-26T12:32:06.011Z,77.58
2023-03-26T12:34:44.644Z,82.18
2023-03-26T12:37:44.577Z,83.20
2023-03-26T12:40:32.500Z,85.26
2023-03-26T12:44:56.402Z,87.30
2023-03-26T12:47:15.055Z,88.71
2023-03-26T12:48:42.551Z,86.37
2023-03-26T12:51:09.178Z,84.36
2023-03-26T12:53:44.804Z,89.60
2023-03-26T12:56:23.433Z,94.57
2023-03-26T12:59:06.896Z,85.45
2023-03-26T13:01:34.402Z,86.23
2023-03-26T13:04:07.132Z,85.03
2023-03-26T13:06:59.111Z,86.04
2023-03-26T13:09:47.091Z,85.49
2023-03-26T13:12:34.094Z,84.31
2023-03-26T13:15:16.614Z,94.10
2023-03-26T13:18:21.495Z,94.46
2023-03-26T13:21:10.285Z,97.60
2023-03-26T13:24:03.058Z,99.67
2023-03-26T13:26:48.413Z,100.00
2023-03-26T13:29:26.143Z,100.00
2023-03-26T13:32:01.556Z,100.00
2023-03-26T13:35:06.340Z,100.00
2023-03-26T13:37:59.375Z,100.00
2023-03-26T13:40:34.425Z,100.00
2023-03-26T13:43:10.064Z,100.00
2023-03-26T13:45:56.213Z,100.00
2023-03-26T13:48:30.919Z,100.00
2023-03-26T13:51:05.162Z,100.00
2023-03-26T13:53:43.962Z,100.00
2023-03-26T13:56:17.823Z,100.00
2023-03-26T13:58:57.652Z,100.00
2023-03-26T14:01:35.257Z,100.00
2023-03-26T14:04:33.688Z,100.00
2023-03-26T14:07:09.792Z,100.00
2023-03-26T14:09:59.015Z,100.00
2023-03-26T14:12:48.971Z,100.00
2023-03-26T14:15:56.202Z,100.00
2023-03-26T14:18:33.513Z,100.00
2023-03-26T14:21:37.065Z,100.00
2023-03-26T14:24:12.814Z,100.00
2023-03-26T14:26:40.430Z,100.00
2023-03-26T14:29:10.032Z,100.00
2023-03-26T14:31:48.614Z,100.00
2023-03-26T14:34:19.273Z,100.00
2023-03-26T14:37:09.432Z,100.00
2023-03-26T14:40:39.550Z,100.00
2023-03-26T14:43:19.820Z,100.00
2023-03-26T14:46:07.954Z,100.00
2023-03-26T14:48:48.191Z,100.00
2023-03-26T14:51:55.793Z,100.00
2023-03-26T14:54:29.435Z,100.00
2023-03-26T14:57:18.800Z,100.00
2023-03-26T15:00:32.803Z,100.00
2023-03-26T15:03:29.672Z,100.00
2023-03-26T15:06:21.137Z,100.00
2023-03-26T15:09:31.439Z,100.00
2023-03-26T15:12:12.247Z,100.00
2023-03-26T15:15:13.934Z,100.00
2023-03-26T15:18:17.372Z,100.00
2023-03-26T15:21:11.460Z,100.00
2023-03-26T15:23:58.044Z,100.00
2023-03-26T15:27:01.115Z,100.00
2023-03-26T15:29:49.525Z,100.00
2023-03-26T15:32:57.104Z,100.00
2023-03-26T15:36:00.824Z,100.00
2023-03-26T15:38:38.578Z,100.00
2023-03-26T15:41:05.576Z,100.00
2023-03-26T15:44:24.288Z,100.00
2023-03-26T15:46:54.784Z,100.00
2023-03-26T15:49:59.862Z,100.00
2023-03-26T15:52:33.171Z,100.00
2023-03-26T15:55:21.291Z,100.00
2023-03-26T15:58:01.455Z,100.00
2023-03-26T16:00:33.056Z,100.00
2023-03-26T16:03:11.496Z,100.00
2023-03-26T16:06:00.099Z,100.00
2023-03-26T16:08:46.995Z,100.00
2023-03-26T16:11:16.646Z,100.00
2023-03-26T16:13:49.743Z,100.00
2023-03-26T16:16:16.466Z,100.00
2023-03-26T16:19:23.450Z,100.00
2023-03-26T16:22:42.991Z,100.00
2023-03-26T16:25:52.806Z,100.00
2023-03-26T16:28:29.598Z,100.00
2023-03-26T16:31:22.985Z,100.00
2023-03-26T16:34:03.108Z,100.00
2023-03-26T16:36:36.022Z,100.00
2023-03-26T16:39:08.333Z,100.00
2023-03-26T16:41:50.008Z,100.00
2023-03-26T16:44:43.907Z,100.00
2023-03-26T16:47:48.717Z,100.00
2023-03-26T16:50:28.258Z,100.00
2023-03-26T16:53:13.486Z,100.00
2023-03-26T16:55:46.442Z,100.00
2023-03-26T16:58:24.191Z,100.00
2023-03-26T17:01:06.045Z,100.00
2023-03-26T17:03:41.110Z,100.00
2023-03-26T17:06:49.431Z,100.00
2023-03-26T17:09:31.684Z,100.00
2023-03-26T17:12:29.186Z,100.00
2023-03-26T17:15:06.652Z,100.00
2023-03-26T17:18:07.334Z,100.00
2023-03-26T17:20:36.996Z,100.00
2023-03-26T17:23:12.076Z,100.00
2023-03-26T17:25:53.775Z,100.00
2023-03-26T17:28:32.471Z,100.00
2023-03-26T17:31:04.360Z,100.00
2023-03-26T17:33:36.987Z,100.00
2023-03-26T17:36:15.531Z,100.00
2023-03-26T17:38:48.222Z,100.00
2023-03-26T17:41:49.925Z,100.00
2023-03-26T17:44:49.883Z,100.00
2023-03-26T17:47:23.562Z,100.00
2023-03-26T17:49:58.327Z,100.00
2023-03-26T17:52:38.820Z,100.00
2023-03-26T17:55:10.525Z,100.00
2023-03-26T17:57:46.599Z,100.00
2023-03-26T18:00:36.371Z,100.00
2023-03-26T18:03:17.976Z,100.00
2023-03-26T18:05:46.116Z,100.00
2023-03-26T18:08:46.373Z,100.00
2023-03-26T18:11:39.677Z,100.00
2023-03-26T18:14:44.268Z,100.00
2023-03-26T18:17:11.404Z,100.00
2023-03-26T18:19:49.823Z,100.00
2023-03-26T18:22:39.104Z,100.00
2023-03-26T18:25:21.412Z,100.00
2023-03-26T18:27:51.666Z,100.00
2023-03-26T18:30:21.899Z,100.00
2023-03-26T18:33:11.939Z,100.00
2023-03-26T18:35:44.710Z,100.00
2023-03-26T18:38:35.872Z,100.00
2023-03-26T18:41:06.539Z,100.00
2023-03-26T18:43:35.564Z,100.00
2023-03-26T18:46:13.874Z,100.00
2023-03-26T18:48:40.881Z,100.00
2023-03-26T18:51:11.179Z,100.00
2023-03-26T18:53:45.585Z,100.00
2023-03-26T18:56:23.067Z,100.00
2023-03-26T18:58:51.926Z,100.00
2023-03-26T19:01:25.966Z,100.00
2023-03-26T19:03:54.170Z,100.00
2023-03-26T19:06:24.337Z,100.00
2023-03-26T19:08:51.077Z,100.00
2023-03-26T19:11:22.520Z,100.00
2023-03-26T19:14:03.916Z,100.00
2023-03-26T19:16:35.422Z,100.00
2023-03-26T19:19:11.062Z,100.00
2023-03-26T19:21:41.445Z,100.00
2023-03-26T19:24:09.326Z,100.00
2023-03-26T19:26:36.684Z,100.00
2023-03-26T19:29:04.048Z,100.00
2023-03-26T19:31:38.813Z,100.00
2023-03-26T19:34:24.563Z,100.00
2023-03-26T19:37:18.109Z,100.00
2023-03-26T19:39:46.368Z,100.00
2023-03-26T19:42:43.862Z,100.00
2023-03-26T19:45:19.000Z,100.00
2023-03-26T19:47:56.854Z,100.00
2023-03-26T19:50:36.566Z,100.00
2023-03-26T19:53:16.823Z,100.00
2023-03-26T19:56:04.471Z,100.00
2023-03-26T19:58:31.894Z,100.00
2023-03-26T20:00:59.108Z,100.00
2023-03-26T20:03:31.431Z,100.00
2023-03-26T20:06:00.630Z,100.00
2023-03-26T20:08:27.380Z,100.00
2023-03-26T20:10:59.703Z,100.00
2023-03-26T20:13:26.483Z,100.00
2023-03-26T20:16:06.502Z,100.00
2023-03-26T20:18:37.686Z,100.00
2023-03-26T20:21:14.087Z,100.00
2023-03-26T20:23:43.891Z,100.00
2023-03-26T20:26:16.386Z,100.00
2023-03-26T20:28:47.776Z,100.00
2023-03-26T20:31:22.028Z,100.00
2023-03-26T20:33:52.793Z,100.00
2023-03-26T20:36:33.965Z,100.00
2023-03-26T20:39:05.814Z,100.00
2023-03-26T20:41:36.025Z,100.00
2023-03-26T20:44:15.372Z,100.00
2023-03-26T20:46:43.666Z,100.00
2023-03-26T20:49:11.630Z,100.00
2023-03-26T20:51:39.314Z,100.00
2023-03-26T20:54:15.158Z,100.00
2023-03-26T20:56:42.366Z,100.00
2023-03-26T20:59:11.685Z,100.00
2023-03-26T21:01:38.688Z,100.00
2023-03-26T21:04:05.918Z,100.00
2023-03-26T21:06:32.499Z,100.00
2023-03-26T21:09:01.806Z,100.00
2023-03-26T21:11:30.858Z,100.00
2023-03-26T21:14:06.839Z,100.00
2023-03-26T21:16:33.862Z,100.00
2023-03-26T21:19:04.470Z,100.00
2023-03-26T21:21:49.556Z,100.00
2023-03-26T21:24:35.000Z,100.00
2023-03-26T21:27:18.891Z,100.00
2023-03-26T21:29:45.722Z,100.00
2023-03-26T21:32:14.387Z,100.00
2023-03-26T21:34:55.736Z,100.00
2023-03-26T21:37:25.677Z,100.00
2023-03-26T21:39:54.681Z,100.00
2023-03-26T21:42:21.644Z,100.00
2023-03-26T21:44:48.585Z,100.00
2023-03-26T21:47:17.467Z,100.00
2023-03-26T21:49:46.461Z,100.00
2023-03-26T21:52:15.541Z,100.00
2023-03-26T21:54:43.251Z,100.00
2023-03-26T21:57:17.769Z,100.00
2023-03-26T22:00:16.204Z,100.00
2023-03-26T22:02:45.202Z,100.00
2023-03-26T22:05:22.373Z,100.00
2023-03-26T22:07:58.792Z,100.00
2023-03-26T22:10:25.686Z,100.00
2023-03-26T22:12:52.204Z,100.00
2023-03-26T22:15:20.080Z,100.00
2023-03-26T22:17:53.927Z,100.00
2023-03-26T22:20:25.651Z,100.00
2023-03-26T22:22:55.284Z,100.00
2023-03-26T22:25:27.771Z,100.00
2023-03-26T22:27:57.600Z,100.00
2023-03-26T22:30:24.241Z,100.00
2023-03-26T22:32:53.725Z,100.00
2023-03-26T22:35:20.455Z,100.00
2023-03-26T22:37:47.474Z,100.00
2023-03-26T22:40:14.126Z,100.00
2023-03-26T22:42:41.411Z,100.00
2023-03-26T22:45:11.125Z,100.00
2023-03-26T22:47:38.298Z,100.00
2023-03-26T22:50:08.713Z,100.00
2023-03-26T22:52:36.912Z,100.00
2023-03-26T22:55:06.356Z,100.00
2023-03-26T22:57:35.479Z,100.00
2023-03-26T23:00:13.257Z,100.00
2023-03-26T23:02:46.943Z,100.00
2023-03-26T23:05:17.433Z,100.00
2023-03-26T23:07:45.123Z,100.00
2023-03-26T23:10:14.936Z,100.00
2023-03-26T23:12:43.730Z,100.00
2023-03-26T23:15:13.138Z,100.00
2023-03-26T23:17:39.816Z,100.00
2023-03-26T23:20:15.374Z,100.00
2023-03-26T23:22:44.500Z,100.00
2023-03-26T23:25:11.951Z,100.00
2023-03-26T23:27:40.205Z,100.00
2023-03-26T23:30:10.726Z,100.00
2023-03-26T23:32:42.209Z,100.00
2023-03-26T23:35:09.218Z,100.00
2023-03-26T23:37:35.792Z,100.00
2023-03-26T23:40:07.687Z,100.00
2023-03-26T23:42:34.590Z,100.00
2023-03-26T23:45:01.184Z,100.00
2023-03-26T23:47:34.208Z,100.00
2023-03-26T23:50:04.123Z,100.00
2023-03-26T23:52:33.148Z,100.00
2023-03-26T23:55:05.915Z,100.00
2023-03-26T23:57:32.518Z,100.00
2023-03-26T23:59:59.045Z,100.00
